• Join FlightAware (Why Join?)
  • Login
  • US Flag 
03:59PM EDT


 

Airport Tracker/Info


-or-


 

Live Flight TrackerFlight Track Log ✈ SWA1223 ✈ 25-Apr-2013 ✈ KPHX - KEWR

Flight Track Log - Related Links

Times and Time Zones

All times are in EDT time to prevent confusion due to time zone crossing. See the SWA1223 flight status page for this flight to view local times or setup timezone preferences in your user account.

Time Position Orientation Groundspeed Altitude Reporting Facility
EDT Latitude Longitude Course Direction KTS MPH feet Rate Location/Type
04:14PM 33.4333 -112.0167 270° West 151 174 1,800  Level Phoenix TRACON
04:15PM 33.4333 -112.0833 270° West 193 222 3,300 1,740 Climbing Phoenix TRACON
04:16PM 33.4367 -112.1258 275° West 211 243 4,700 1,920 Climbing Albuquerque Center
04:17PM 33.4961 -112.1569 336° Northwest 280 322 6,700 2,160 Climbing Albuquerque Center
04:18PM 33.5544 -112.0892 44° Northeast 297 342 9,300 2,400 Climbing Albuquerque Center
04:19PM 33.5706 -111.9864 79° East 318 366 11,800 2,520 Climbing Albuquerque Center
04:20PM 33.5908 -111.8683 78° East 362 417 14,600 2,700 Climbing Albuquerque Center
04:21PM 33.6156 -111.7189 79° East 384 442 17,400 2,520 Climbing Albuquerque Center
04:22PM 33.6378 -111.5819 79° East 417 480 19,900 1,980 Climbing Albuquerque Center
04:23PM 33.6608 -111.4375 79° East 444 511 21,500 1,740 Climbing Albuquerque Center
04:24PM 33.6861 -111.2833 79° East 473 544 23,500 1,980 Climbing Albuquerque Center
04:25PM 33.7372 -111.1331 68° East 489 563 25,700 2,100 Climbing Albuquerque Center
04:26PM 33.8014 -110.9481 67° East 502 578 27,900 1,740 Climbing Albuquerque Center
04:27PM 33.8575 -110.7919 67° East 509 586 29,400 1,380 Climbing Albuquerque Center
04:28PM 33.9122 -110.6308 68° East 518 596 30,800 1,500 Climbing Albuquerque Center
04:29PM 33.9706 -110.4669 67° East 528 608 32,500 1,800 Climbing Albuquerque Center
04:30PM 34.0375 -110.2753 67° East 530 610 34,600 1,440 Climbing Albuquerque Center
04:31PM 34.0936 -110.1161 67° East 522 601 35,500 900 Climbing Albuquerque Center
04:32PM 34.1500 -109.9531 67° East 525 604 36,500 720 Climbing Albuquerque Center
04:33PM 34.2117 -109.7711 68° East 526 605 37,000 240 Climbing Albuquerque Center
04:34PM 34.2644 -109.6161 68° East 523 602 37,000  Level Albuquerque Center
04:35PM 34.3261 -109.4361 67° East 521 600 37,000  Level Albuquerque Center
04:36PM 34.3775 -109.2806 68° East 521 600 37,000  Level Albuquerque Center
04:37PM 34.4372 -109.1025 68° East 516 594 37,000  Level Albuquerque Center
04:38PM 34.4797 -108.9469 72° East 511 588 37,000  Level Albuquerque Center
04:40PM 34.5289 -108.7656 72° East 509 586 37,000  Level Albuquerque Center
04:41PM 34.5717 -108.6117 71° East 508 585 37,000  Level Albuquerque Center
04:42PM 34.6153 -108.4514 72° East 510 587 37,000  Level Albuquerque Center
04:43PM 34.6581 -108.2892 72° East 508 585 37,000  Level Albuquerque Center
04:44PM 34.7025 -108.1261 72° East 509 586 37,000  Level Albuquerque Center
04:45PM 34.7550 -107.9289 72° East 511 588 37,000  Level Albuquerque Center
04:46PM 34.7983 -107.7644 72° East 512 589 37,000  Level Albuquerque Center
04:47PM 34.8433 -107.5975 72° East 516 594 37,000  Level Albuquerque Center
04:48PM 34.8864 -107.4297 73° East 520 598 37,000  Level Albuquerque Center
04:49PM 34.9303 -107.2622 72° East 520 598 37,000  Level Albuquerque Center
04:51PM 35.0239 -106.8975 73° East 514 592 37,000  Level Albuquerque Center
04:52PM 35.0686 -106.7450 70° East 505 581 37,000  Level Albuquerque Center
04:53PM 35.1389 -106.5678 64° Northeast 514 592 37,000  Level Albuquerque Center
04:54PM 35.1994 -106.3994 66° East 517 595 37,000  Level Albuquerque Center
04:55PM 35.2581 -106.2411 66° East 514 592 37,000  Level Albuquerque Center
04:56PM 35.3167 -106.0778 66° East 509 586 37,000  Level Albuquerque Center
04:57PM 35.3739 -105.9225 66° East 517 595 37,000  Level Albuquerque Center
04:58PM 35.4383 -105.7547 65° Northeast 518 596 37,000  Level Albuquerque Center
04:59PM 35.4947 -105.5953 66° East 509 586 37,000  Level Albuquerque Center
05:01PM 35.5530 -105.3829 64° Northeast  Level FlightAware Approximate
05:01PM 35.6156 -105.2508 64° Northeast 503 579 37,000  Level Albuquerque Center
05:02PM 35.6731 -105.0881 66° East 509 586 37,000  Level Albuquerque Center
05:03PM 35.7306 -104.9242 67° East 513 590 37,000  Level Albuquerque Center
05:04PM 35.7897 -104.7606 66° East 516 594 37,000  Level Albuquerque Center
05:05PM 35.8486 -104.5969 66° East 516 594 37,000  Level Albuquerque Center
05:06PM 35.9083 -104.4333 66° East 516 594 37,000  Level Albuquerque Center
05:07PM 35.9675 -104.2706 66° East 515 593 37,000  Level Albuquerque Center
05:08PM 36.0489 -104.1253 55° Northeast 504 580 37,000  Level Albuquerque Center
05:10PM 36.1461 -103.9569 54° Northeast 509 586 37,000  Level Albuquerque Center
05:11PM 36.2292 -103.8136 54° Northeast 507 583 37,000  Level Albuquerque Center
05:12PM 36.3122 -103.6692 54° Northeast 509 586 37,000  Level Albuquerque Center
05:13PM 36.3944 -103.5233 55° Northeast 509 586 37,000  Level Albuquerque Center
05:14PM 36.4764 -103.3803 55° Northeast 507 583 37,000  Level Albuquerque Center
05:15PM 36.5578 -103.2347 55° Northeast 506 582 37,000  Level Albuquerque Center
05:16PM 36.6411 -103.0856 55° Northeast 502 578 37,000  Level Albuquerque Center
05:17PM 36.7317 -102.9261 55° Northeast 505 581 37,000  Level Albuquerque Center
05:18PM 36.8078 -102.7872 56° Northeast 508 585 37,000  Level Albuquerque Center
05:19PM 36.8981 -102.6247 55° Northeast 510 587 37,000  Level Albuquerque Center
05:20PM 36.9792 -102.4781 55° Northeast 512 589 37,000  Level Albuquerque Center
05:21PM 37.0578 -102.3389 55° Northeast 511 588 37,000  Level Albuquerque Center
05:22PM 37.1464 -102.1728 56° Northeast 513 590 37,000  Level Albuquerque Center
05:23PM 37.2231 -102.0322 56° Northeast 513 590 37,000  Level Albuquerque Center
05:24PM 37.3125 -101.8658 56° Northeast 514 592 37,000  Level Albuquerque Center
05:25PM 37.3747 -101.7461 57° Northeast 513 590 37,000  Level Kansas City Center
05:26PM 37.4528 -101.6039 55° Northeast 515 593 37,000  Level Kansas City Center
05:27PM 37.5422 -101.4367 56° Northeast 515 593 37,000  Level Kansas City Center
05:28PM 37.6194 -101.2914 56° Northeast 518 596 37,000  Level Kansas City Center
05:29PM 37.7031 -101.1333 56° Northeast 516 594 37,000  Level Kansas City Center
05:30PM 37.7872 -100.9747 56° Northeast 516 594 37,000  Level Kansas City Center
05:31PM 37.8661 -100.8272 56° Northeast 519 597 37,000  Level Kansas City Center
05:32PM 37.9572 -100.6544 56° Northeast 523 602 37,000  Level Kansas City Center
05:33PM 38.0361 -100.5119 55° Northeast 519 597 37,000  Level Kansas City Center
05:34PM 38.1289 -100.3431 55° Northeast 520 598 37,000  Level Kansas City Center
05:35PM 38.2072 -100.1981 55° Northeast 519 597 37,000  Level Kansas City Center
05:36PM 38.2861 -100.0539 55° Northeast 519 597 37,000  Level Kansas City Center
05:37PM 38.3778 -99.8833 56° Northeast 521 600 37,000  Level Kansas City Center
05:38PM 38.4550 -99.7394 56° Northeast 516 594 37,000  Level Kansas City Center
05:39PM 38.5467 -99.5694 55° Northeast 519 597 37,000  Level Kansas City Center
05:40PM 38.6269 -99.4175 56° Northeast 514 592 37,000  Level Kansas City Center
05:41PM 38.7086 -99.2653 55° Northeast 517 595 37,000  Level Kansas City Center
05:42PM 38.7919 -99.1094 56° Northeast 526 605 37,000  Level Kansas City Center
05:43PM 38.8728 -98.9564 56° Northeast 518 596 37,000  Level Kansas City Center
05:44PM 38.9528 -98.8036 56° Northeast 515 593 37,000  Level Kansas City Center
05:45PM 39.0336 -98.6506 56° Northeast 515 593 37,000  Level Kansas City Center
05:47PM 39.1281 -98.4664 56° Northeast 514 592 37,000  Level Kansas City Center
05:48PM 39.2075 -98.3136 56° Northeast 512 589 37,000  Level Kansas City Center
05:49PM 39.2828 -98.1644 57° Northeast 507 583 37,000  Level Kansas City Center
05:50PM 39.3711 -97.9942 56° Northeast 509 586 37,000  Level Kansas City Center
05:51PM 39.4483 -97.8403 57° Northeast 511 588 37,000  Level Kansas City Center
05:52PM 39.5267 -97.6878 56° Northeast 511 588 37,000  Level Kansas City Center
05:53PM 39.6036 -97.5350 57° Northeast 507 583 37,000  Level Kansas City Center
05:53PM 39.6475 -97.4478 57° Northeast 510 587 37,000  Level Minneapolis Center
05:54PM 39.7250 -97.2900 57° Northeast 511 588 37,000  Level Minneapolis Center
05:55PM 39.8181 -97.1067 57° Northeast 511 588 37,000  Level Minneapolis Center
05:56PM 39.8492 -97.0397 59° Northeast 511 588 37,000  Level Kansas City Center
05:56PM 39.8944 -96.9489 57° Northeast 511 588 37,000  Level Minneapolis Center
05:58PM 39.9714 -96.7936 57° Northeast 511 588 37,000 540 Level Minneapolis Center
05:59PM 40.0611 -96.6069 58° Northeast 512 589 38,300 960 Climbing Minneapolis Center
06:00PM 40.1517 -96.4200 58° Northeast 510 587 39,000 300 Climbing Minneapolis Center
06:01PM 40.2281 -96.2656 57° Northeast 508 585 39,000  Level Minneapolis Center
06:02PM 40.3031 -96.1086 58° Northeast 510 587 39,000  Level Minneapolis Center
06:03PM 40.3767 -95.9542 58° Northeast 507 583 39,000  Level Minneapolis Center
06:04PM 40.4494 -95.7972 59° Northeast 506 582 39,000  Level Minneapolis Center
06:05PM 40.5381 -95.6139 58° Northeast 500 575 39,000  Level Minneapolis Center
06:06PM 40.6103 -95.4600 58° Northeast 498 573 39,000  Level Minneapolis Center
06:07PM 40.6972 -95.2744 58° Northeast 499 574 39,000  Level Minneapolis Center
06:08PM 40.7711 -95.1175 58° Northeast 503 579 39,000  Level Minneapolis Center
06:09PM 40.8439 -94.9606 58° Northeast 504 580 39,000  Level Minneapolis Center
06:10PM 40.9300 -94.7719 59° Northeast 502 578 39,000  Level Minneapolis Center
06:11PM 41.0022 -94.6144 59° Northeast 503 579 39,000  Level Minneapolis Center
06:12PM 41.0669 -94.4703 59° Northeast 502 578 39,000  Level Minneapolis Center
06:13PM 41.1444 -94.2994 59° Northeast 499 574 39,000  Level Minneapolis Center
06:14PM 41.2233 -94.1264 59° Northeast 497 572 39,000  Level Minneapolis Center
06:16PM 41.2925 -93.9717 59° Northeast 492 566 39,000  Level Minneapolis Center
06:17PM 41.3628 -93.8161 59° Northeast 493 567 39,000  Level Minneapolis Center
06:18PM 41.4167 -93.6936 60° Northeast 488 562 39,000  Level Minneapolis Center
06:19PM 41.4542 -93.4747 77° East 509 586 39,000  Level Minneapolis Center
06:20PM 41.4764 -93.2522 82° East 510 587 39,000  Level Minneapolis Center
06:21PM 41.4933 -93.0675 83° East 507 583 39,000  Level Minneapolis Center
06:22PM 41.5075 -92.9192 83° East 505 581 39,000  Level Minneapolis Center
06:23PM 41.5269 -92.6958 83° East 507 583 39,000  Level Minneapolis Center
06:24PM 41.5406 -92.5425 83° East 508 585 39,000  Level Chicago Center
06:25PM 41.5569 -92.3561 83° East 509 586 39,000  Level Chicago Center
06:26PM 41.5736 -92.1692 83° East 512 589 39,000  Level Chicago Center
06:27PM 41.5922 -91.9431 84° East 516 594 39,000  Level Chicago Center
06:28PM 41.6075 -91.7558 84° East 516 594 39,000  Level Chicago Center
06:29PM 41.6233 -91.5672 84° East 516 594 39,000  Level Chicago Center
06:30PM 41.6375 -91.3792 84° East 516 594 39,000  Level Chicago Center
06:31PM 41.6525 -91.1892 84° East 520 598 39,000  Level Chicago Center
06:32PM 41.6700 -90.9614 84° East 520 598 39,000  Level Chicago Center
06:33PM 41.6833 -90.7714 85° East 519 597 39,000  Level Chicago Center
06:34PM 41.6972 -90.5850 84° East 519 597 39,000  Level Chicago Center
06:35PM 41.7103 -90.3942 85° East 516 594 39,000  Level Chicago Center
06:36PM 41.7231 -90.2028 85° East 513 590 39,000  Level Chicago Center
06:37PM 41.7394 -89.9731 84° East 513 590 39,000  Level Chicago Center
06:38PM 41.7517 -89.7842 85° East 509 586 39,000  Level Chicago Center
06:39PM 41.7633 -89.5964 85° East 506 582 39,000  Level Chicago Center
06:41PM 41.7774 -89.3353 86° East  Level FlightAware Approximate
06:41PM 41.7881 -89.1933 86° East 510 587 39,000  Level Chicago Center
06:42PM 41.7975 -89.0022 86° East 515 593 39,000  Level Chicago Center
06:43PM 41.8078 -88.8106 86° East 518 596 39,000  Level Chicago Center
06:44PM 41.8192 -88.6189 85° East 516 594 39,000  Level Chicago Center
06:45PM 41.8289 -88.4297 86° East 510 587 39,000  Level Chicago Center
06:46PM 41.8408 -88.2006 86° East 510 587 39,000  Level Chicago Center
06:47PM 41.8494 -88.0119 86° East 506 582 39,000  Level Chicago Center
06:48PM 41.8589 -87.8194 86° East 513 590 39,000  Level Chicago Center
06:49PM 41.8681 -87.6289 86° East 512 589 39,000  Level Chicago Center
06:50PM 41.8756 -87.4392 87° East 512 589 39,000  Level Chicago Center
06:51PM 41.8853 -87.2508 86° East 508 585 39,000  Level Chicago Center
06:52PM 41.8931 -87.0617 87° East 509 586 39,000  Level Chicago Center
06:54PM 41.9022 -86.8344 87° East 510 587 39,000  Level Chicago Center
06:55PM 41.9072 -86.6422 88° East 512 589 39,000  Level Chicago Center
06:56PM 41.9150 -86.4525 87° East 508 585 39,000  Level Chicago Center
06:57PM 41.9206 -86.2611 88° East 510 587 39,000  Level Chicago Center
06:59PM 41.9325 -85.8819 87° East 507 583 39,000  Level Chicago Center
07:00PM 41.9392 -85.6542 88° East 505 581 39,000  Level Chicago Center
07:01PM 41.9447 -85.4644 88° East 503 579 39,000  Level Chicago Center
07:02PM 41.9522 -85.2606 87° East 515 593 39,000  Level Cleveland Center
07:03PM 41.9533 -85.0733 89° East 510 587 39,000  Level Cleveland Center
07:04PM 41.9519 -84.8889 91° East 505 581 39,000  Level Cleveland Center
07:05PM 41.9506 -84.7044 91° East 500 575 39,000  Level Cleveland Center
07:06PM 41.9486 -84.5172 91° East 494 568 39,000  Level Cleveland Center
07:07PM 41.9467 -84.3272 91° East 499 574 39,000  Level Cleveland Center
07:08PM 41.9428 -84.1258 91° East 499 574 39,000  Level Cleveland Center
07:09PM 41.9400 -83.9358 91° East 504 580 39,000  Level Cleveland Center
07:10PM 41.9350 -83.7486 92° East 504 580 39,000  Level Cleveland Center
07:11PM 41.9339 -83.5614 90° East 499 574 39,000  Level Cleveland Center
07:12PM 41.9322 -83.3772 91° East 499 574 39,000  Level Cleveland Center
07:13PM 41.9314 -83.2292 90° East 499 574 39,000  Level Cleveland Center
07:14PM 41.9297 -83.0253 91° East 494 568 39,000  Level Cleveland Center
07:15PM 41.9294 -82.8383 90° East 494 568 39,000  Level Cleveland Center
07:16PM 41.9267 -82.6569 91° East 494 568 39,000  Level Cleveland Center
07:17PM 41.9236 -82.4697 91° East 499 574 39,000  Level Cleveland Center
07:18PM 41.9222 -82.2828 91° East 499 574 39,000  Level Cleveland Center
07:19PM 41.9208 -82.1011 91° East 499 574 39,000  Level Cleveland Center
07:20PM 41.9189 -81.9142 91° East 494 568 39,000  Level Cleveland Center
07:21PM 41.9083 -81.7300 94° East 500 575 39,000  Level Cleveland Center
07:22PM 41.8914 -81.5258 96° East 500 575 39,000  Level Cleveland Center
07:23PM 41.8719 -81.3444 98° East 500 575 39,000  Level Cleveland Center
07:24PM 41.8564 -81.1603 96° East 500 575 39,000  Level Cleveland Center
07:25PM 41.8383 -80.9761 97° East 500 575 39,000  Level Cleveland Center
07:26PM 41.8222 -80.7922 97° East 500 575 39,000  Level Cleveland Center
07:27PM 41.8017 -80.6111 99° East 500 575 39,000  Level Cleveland Center
07:28PM 41.7847 -80.4272 97° East 500 575 39,000  Level Cleveland Center
07:29PM 41.7678 -80.2631 98° East 500 575 39,000  Level Cleveland Center
07:30PM 41.7483 -80.0767 98° East 500 575 39,000  Level Cleveland Center
07:31PM 41.7308 -79.8958 97° East 500 575 39,000  Level Cleveland Center
07:32PM 41.7108 -79.7125 98° East 500 575 39,000  Level Cleveland Center
07:33PM 41.6903 -79.5069 98° East 500 575 39,000  Level Cleveland Center
07:34PM 41.6694 -79.3211 98° East 500 575 39,000  Level Cleveland Center
07:35PM 41.6486 -79.1353 98° East 500 575 39,000  Level Cleveland Center
07:36PM 41.6272 -78.9469 99° East 500 575 39,000  Level Cleveland Center
07:37PM 41.6078 -78.7642 98° East 500 575 39,000 -240 Level Cleveland Center
07:38PM 41.5861 -78.5761 99° East 500 575 38,600 -1,380 Descending Cleveland Center
07:39PM 41.5658 -78.3933 98° East 500 575 36,300 -2,340 Descending Cleveland Center
07:40PM 41.5483 -78.2500 99° East 497 572 34,300 -2,280 Descending New York Center
07:41PM 41.5258 -78.0756 100° East 486 559 32,200 -1,680 Descending New York Center
07:42PM 41.5050 -77.9042 99° East 481 554 31,000 -600 Descending New York Center
07:43PM 41.4794 -77.7381 102° East 468 539 31,000  Level New York Center
07:44PM 41.4556 -77.5750 101° East 455 524 31,000  Level New York Center
07:45PM 41.4319 -77.4039 100° East 455 524 31,000 -120 Level New York Center
07:46PM 41.4056 -77.2381 102° East 455 524 30,800 -180 Descending New York Center
07:47PM 41.3811 -77.0753 101° East 455 524 30,700 -1,200 Descending New York Center
07:48PM 41.3567 -76.9069 101° East 455 524 28,500 -2,100 Descending New York Center
07:49PM 41.3314 -76.7500 102° East 455 524 26,600 -1,920 Descending New York Center
07:50PM 41.2908 -76.6000 110° East 442 509 24,700 -1,860 Descending New York Center
07:51PM 41.2519 -76.4586 110° East 421 484 22,900 -1,740 Descending New York Center
07:52PM 41.2144 -76.3231 110° East 402 463 21,200 -1,680 Descending New York Center
07:53PM 41.1825 -76.2047 110° East 387 445 19,600 -1,320 Descending New York Center
07:54PM 41.1417 -76.0472 109° East 395 455 18,700 -900 Descending New York Center
07:55PM 41.1058 -75.9175 110° East 407 468 17,800 -960 Descending New York Center
07:56PM 41.0625 -75.7603 110° East 407 468 16,800 -1,500 Descending New York Center
07:57PM 41.0244 -75.6228 110° East 407 468 14,800 -1,620 Descending New York Center
07:58PM 40.9883 -75.4881 110° East 390 449 13,700 -1,320 Descending New York Center
07:59PM 40.9553 -75.3731 111° Southeast 377 434 12,200 -1,560 Descending New York Center
08:00PM 40.9183 -75.2497 112° Southeast 372 428 10,600 -1,320 Descending New York Center
08:01PM 40.8875 -75.1269 108° East 334 384 9,700 -1,200 Descending New York Center
08:02PM 40.8556 -75.0289 113° Southeast 305 351 8,300 -1,380 Descending New York Center
08:03PM 40.8303 -74.9258 108° East 294 338 7,000 -780 Descending New York Center
08:04PM 40.7908 -74.8578 127° Southeast 270 311 6,800 -540 Descending New York Center
08:05PM 40.7247 -74.8456 172° South 222 255 6,000 -420 Descending New York Center
08:06PM 40.6933 -74.7833 124° Southeast 217 250 6,000  Level New York Center
08:07PM 40.6589 -74.6994 118° Southeast 231 266 6,000  Level New York Center
08:08PM 40.6756 -74.6319 72° East 216 249 6,000 60 Level New York Center
08:08PM 40.7000 -74.6167 25° Northeast 234 269 6,100 60 Climbing New York TRACON
08:09PM 40.7500 -74.5667 37° Northeast 233 268 6,100  Level New York TRACON
08:10PM 40.8000 -74.5500 14° North 227 261 6,100  Level New York TRACON
08:11PM 40.8667 -74.5667 349° North 228 262 6,100 -60 Level New York TRACON
08:12PM 40.9069 -74.5600 North 229 264 6,000 -480 Descending New York Center
08:13PM 40.9761 -74.5472 North 229 264 5,300 -540 Descending New York Center
08:14PM 41.0256 -74.5061 32° Northeast 224 258 5,000 -120 Descending New York Center
08:16PM 41.0667 -74.3667 69° East 216 249 5,100  Climbing New York TRACON
08:17PM 41.0333 -74.3000 124° Southeast 225 259 5,100 -360 Level New York TRACON
08:18PM 41.0000 -74.2333 124° Southeast 224 258 4,400 -540 Descending New York TRACON
08:19PM 40.9667 -74.1667 123° Southeast 225 259 4,100 -600 Descending New York TRACON
08:20PM 40.9167 -74.1167 143° Southeast 220 253 3,300 -720 Descending New York TRACON
08:21PM 40.8667 -74.0833 153° Southeast 197 227 2,700 -420 Descending New York TRACON
08:22PM 40.8167 -74.0833 180° South 186 214 2,500 -540 Descending New York TRACON
08:23PM 40.7667 -74.1167 207° Southwest 158 182 1,700 -840 Descending New York TRACON
08:24PM 40.7333 -74.1333 201° Southwest 128 147 900 -840 Descending New York TRACON